Résultats de la compétition "moyenne Dist SO St PEE sur Nivelle 270810" du 27-08-2010 organisée par la ligue AQ
     
  Télécharger le fichier CSV.  
     
     

 Circuit "D"

Licence Nom Prénom Temps CN
précédent
Score sur
la course
Différence
16756PONCETJ-Pierre0:22:3847945705+911
3163COLOMBETChristian0:25:4039375030+1093
1270ANTOINEAlain0:26:1951824906-276
2857LEROUXJacques0:26:4246634836+173
8928MASCARELLHenri0:27:0848384758-80
2789EVENGabriel0:27:3046214695+74
922PREVOSTPascale0:28:1356994576-1123
1347SINIBALDIMarc0:28:1948144560-254
9472JOUZEAUGeorges0:28:3142504528+278
1656MENUTJ-Claude0:28:5349614470-491
1448KENANEAbdelkader0:28:5746834460-223
10888DAYRIESMichel0:29:2829544382+1428
17406CAMPBELLJane0:29:4045034352-151
2343DUFOURMarcel0:29:5239404323+383
6442GEOFFROYGerard0:29:5436654318+653
1005ALLANCONMichel0:29:5945694306-263
2030BARBIERYves0:30:0040124304+292
2119VANNIERBernard0:30:0754754287-1188
14575AMETMarion0:30:2629164243+1327
21323VANOVERBERGHECamille0:30:3126314231+1600
1509AUBRYMaurice0:30:3243724229-143
626COURNUTAlain0:30:3649034219-684
2349HELIOTClaude0:30:5333484181+833
16352BAUDOINJ-Paul0:31:1436634134+471
3556SZNAIDERPatrick0:31:1829604125+1165
1086ROBERTChristian0:31:1849594125-834
15276VERDINAlix0:31:2926144101+1487
5597EJSMONTJean0:31:3646664086-580
646LARMINACHAndre0:31:3937514079+328
20101MOUYONElisa0:31:4425744069+1495
933SOLMichel0:31:4743974062-335
2817CROCHETGerard0:31:4933364058+722
20572GUILMAINMelanie0:31:5530314045+1014
95CABONHerve0:31:5642204043-177
2558VOGTClaude0:32:3043833973-410
16403EUZENJ-Paul0:32:3430993965+866
930SIMONETJean0:32:5141363930-206
561DONNARDJ-Pierre0:32:5740923918-174
3086JEQUELYann0:33:1540243883-141
633DUBROCAMonique0:33:5441483809-339
2712VUILLETChristian0:34:0148373796-1041
19219RIETHMULLERMathilde0:34:3435443735+191
746TINCHANTJ-Marc0:34:4031213724+603
636FOURGASSIEAlain0:35:0334053684+279
20200LEPERQUEOphelie0:35:0732173677+460
21435DEFIXAnne Claire0:35:2527693646+877
1107NATALIPierre0:35:2736093642+33
1938LEFRANCOISGerard0:35:4336853615-70
18828CRETECamille0:35:5627043593+889
841GATYDaniele0:35:5941203588-532
19382ASSANTEGerard0:36:2330723549+477
20224SELINGUECécile0:36:2624733544+1071
8868BRAMASRenee0:36:2840873541-546
3108GANZITTIAlexandre0:36:3250963534-1562
813COMBETAnnie0:36:4239943518-476
2571DURIEUXPierre0:36:55N/A3497N/A
1605LEPOUPONAndre0:36:5939913491-500
2557VOGTChristiane0:37:0136493488-161
6886FRANTZFrancoise0:37:1635163465-51
4272CLERCAnne0:37:1837493461-288
20410FALCOZEstelle0:37:2323433454+1111
9477MICHONAnnie0:37:3726863432+746
22893BRISSARDVirginie0:37:56N/A3404N/A
12359BAYLEOdile0:37:5833293401+72
2294BOYERBernard0:38:1338253378-447.3333
19238CAMASMandye0:38:1931033370+267
3356CHARIAUMichel0:38:3134063352-54
19362TOULEMONDECamille0:38:3128643352+488
12059GROSJEANA-Marie0:38:3823203342+1022
1262BEHOTEGUYBernard0:38:4038933339-554
14245RICHARDNicole0:38:4431133333+220
1087ROBERTMartine0:38:5037323325-407
10639BOULANGERIsabelle0:38:5333353321-14
8761BRUNELMarie-Jo0:38:5833673313-54
455GUIGUETMichel0:39:1336323292-340
5033THIEBAULTMonique0:39:2441353277-858
2401DEVILLENelly0:40:3644023180-1222
1152DELIFrancoise0:41:0938723138-734
1000LEFOUESTJoseph0:41:1937513125-626
12192LOUATAime0:41:1940153125-890
249GANDONJ-Claude0:41:3738083102-706
3262DELALANDEJoel0:41:4421673094+927
6491ROBERTFrancoise0:41:5342643083-1181
1756LORREAnnie0:41:5536913080-611
20215SIXPauline0:42:0028163074+258
12354GROSJEANPierre0:42:0125213073+552
2952ARMBRUSTERMarie0:42:0834623064-398
18142LE NAOURGaelle0:42:5628563007+151
1909MEYERCorinne0:43:2833622970-392
5533THIEBAULTJ-Philippe0:43:3034562968-488
1956WIBARTMartine0:43:3340082965-1043
17201LAMINETTEM-Odile0:44:1518082918+1110
9438MANSUYLaurette0:44:5832182871-347
3302JEANPIERREM-Therese0:46:1631282791-337
4126DUCOSElisabeth0:46:2125522786+234
2888MOULIEREM-Bernadett0:46:3031522777-375
4507DUBROCAJ-Michel0:47:2931992719-480
7833MARTINEZCatherine0:47:4436632705-958
1380DIEUDONNEMadeleine0:47:5240252697-1328
1919SCHREIBERJ-Marie0:48:25N/A2667N/A
18299GOURLAINMathilde0:48:3328742659-215
13706LACOMBEJ-Pierre0:48:4329242650-274
13752VILLEDIEUMartine0:48:5638182639-1179
7520BOUCHESylvie0:49:0635112630-881
96CABONMonique0:49:1024602626+166
12715BOCQUETPascale0:49:1229572624-333
2524DUVALJacques0:49:1628322621-211
12102BOUVERETMichelle0:50:0432012579-622
4671POGUPaulette0:50:1927972566-231
1443BEGUINOTJacques0:50:2123592564+205
14876CAZALADominique0:50:3324992554+55
6443GEOFFROYNicole0:50:3925352549+14
23286JOURDANCindy0:50:40N/A2548N/A
12060PITAVALSylvie0:51:4730452493-552
20170MAIRECandice0:51:4823282493+165
4234DRAULTJ-Raymond0:52:1127822474-308
1381DIEUDONNERoland0:52:1536292471-1158
8828EVENLaurie0:52:489722445+1473
22417GERBEAUXMarie-jeanne0:53:3302411N/A
9059GUINETLaurence0:53:4416502403+753
5497COCAULTYvonne0:53:4929462399-547
11810GUETMartine0:53:5219982397+399
16634BAUDOINAnnie0:54:0022382391+153
13991POUPIERClaudine0:54:0222312390+159
15296GREVETClaudie0:54:3421722366+194
807BOURRINM-Francoise0:54:4724032357-46
23425ARROQUIMathilde0:55:14N/A2338N/A
406TREZEGUETCatherine0:55:2320822331+249
2387SUTTEROdile0:56:3925422279-263
2885LECOYERAnnick0:57:5427142230-484
12787VERGEEvelyne0:58:0523982223-175
1628ROUXAnnie0:58:0711032222+1119
5804BREMAUDVeronique0:59:3621072166+59
8954BASTIEN-FATHNicole1:01:1921942106-88
2680KIEFFERMireille1:01:3027852099-686
1693BAUDRYJ-Claude1:01:4537592091-1668
1106NATALIAnnie1:02:2728692067-802
2679KIEFFERJ-Paul1:02:4037602060-1700
295PEETERSSimone1:03:1728312040-791
1416CHAVERNACBruno1:05:2219681975+7
19574PARISAlain1:06:23N/A1945N/A
14632ALLANCONClaudine1:06:2919241942+18
1001LEFOUESTM-Therese1:07:5221151902-213
11368LAUNEYNoella1:09:5520961847-249
1438BOUSQUETMichel1:14:2738321734-2098
15894LUDEWIG-JAMESCarol1:17:5821281656-472
14002DUBOISSylvie1:20:3323121603-709
14078BLAUDEZJocelyne1:27:1301480N/A
1417CHAVERNACChantal1:28:159541463+509
3918VERTGenevieve1:49:359231178+255
2555RIAULTBernardN/A39260-3926
3137MANOClaudioN/A40350-4035
931SIMONETMarieN/A22560-2256
1918SCHREIBERBrigitteN/AN/A0N/A
22972MAZARS GIRARDETEmelineN/AN/A0N/A

  Indice de confiance du circuit (moyenne des différences entre CN et score sur la course des 3 à 10 premiers) : 50






 Retour